sensor_id;sensor_type;location;lat;lon;timestamp;P1;durP1;ratioP1;P2;durP2;ratioP2
3865;SDS011;1948;53.250;10.412;2023-11-21T00:01:32;6.30;;;4.43;;
3865;SDS011;1948;53.250;10.412;2023-11-21T00:04:03;3.87;;;3.53;;
3865;SDS011;1948;53.250;10.412;2023-11-21T00:06:34;4.20;;;3.80;;
3865;SDS011;1948;53.250;10.412;2023-11-21T00:09:02;5.93;;;4.07;;
3865;SDS011;1948;53.250;10.412;2023-11-21T00:11:29;6.17;;;4.33;;
3865;SDS011;1948;53.250;10.412;2023-11-21T00:13:58;3.60;;;3.40;;
3865;SDS011;1948;53.250;10.412;2023-11-21T00:16:29;4.07;;;3.57;;
3865;SDS011;1948;53.250;10.412;2023-11-21T00:18:59;4.00;;;3.80;;
3865;SDS011;1948;53.250;10.412;2023-11-21T00:21:28;3.30;;;3.20;;
3865;SDS011;1948;53.250;10.412;2023-11-21T00:23:56;3.63;;;3.43;;
3865;SDS011;1948;53.250;10.412;2023-11-21T00:26:25;3.97;;;3.77;;
3865;SDS011;1948;53.250;10.412;2023-11-21T00:28:53;4.20;;;4.00;;
3865;SDS011;1948;53.250;10.412;2023-11-21T00:31:27;4.13;;;4.00;;
3865;SDS011;1948;53.250;10.412;2023-11-21T00:33:54;5.07;;;4.77;;
3865;SDS011;1948;53.250;10.412;2023-11-21T00:36:21;6.30;;;5.80;;
3865;SDS011;1948;53.250;10.412;2023-11-21T00:38:54;6.80;;;6.30;;
3865;SDS011;1948;53.250;10.412;2023-11-21T00:41:24;6.47;;;5.47;;
3865;SDS011;1948;53.250;10.412;2023-11-21T00:43:55;6.37;;;5.87;;
3865;SDS011;1948;53.250;10.412;2023-11-21T00:46:28;7.17;;;6.57;;
3865;SDS011;1948;53.250;10.412;2023-11-21T00:48:55;7.80;;;6.97;;
3865;SDS011;1948;53.250;10.412;2023-11-21T00:51:25;9.87;;;7.17;;
3865;SDS011;1948;53.250;10.412;2023-11-21T00:53:52;10.17;;;7.40;;
3865;SDS011;1948;53.250;10.412;2023-11-21T00:56:20;7.87;;;7.17;;
3865;SDS011;1948;53.250;10.412;2023-11-21T00:58:48;8.13;;;7.33;;
3865;SDS011;1948;53.250;10.412;2023-11-21T01:01:18;8.67;;;7.97;;
3865;SDS011;1948;53.250;10.412;2023-11-21T01:03:49;8.10;;;7.30;;
3865;SDS011;1948;53.250;10.412;2023-11-21T01:06:17;8.23;;;7.40;;
3865;SDS011;1948;53.250;10.412;2023-11-21T01:08:44;11.33;;;8.37;;
3865;SDS011;1948;53.250;10.412;2023-11-21T01:11:11;10.97;;;8.97;;
3865;SDS011;1948;53.250;10.412;2023-11-21T01:13:41;20.03;;;9.10;;
3865;SDS011;1948;53.250;10.412;2023-11-21T01:16:08;11.87;;;8.03;;
3865;SDS011;1948;53.250;10.412;2023-11-21T01:18:38;11.90;;;9.37;;
3865;SDS011;1948;53.250;10.412;2023-11-21T01:21:08;14.83;;;9.83;;
3865;SDS011;1948;53.250;10.412;2023-11-21T01:23:38;12.40;;;10.00;;
3865;SDS011;1948;53.250;10.412;2023-11-21T01:26:05;12.90;;;9.63;;
3865;SDS011;1948;53.250;10.412;2023-11-21T01:28:35;14.90;;;9.90;;
3865;SDS011;1948;53.250;10.412;2023-11-21T01:31:03;11.10;;;8.90;;
3865;SDS011;1948;53.250;10.412;2023-11-21T01:33:30;9.97;;;8.97;;
3865;SDS011;1948;53.250;10.412;2023-11-21T01:36:00;13.40;;;9.73;;
3865;SDS011;1948;53.250;10.412;2023-11-21T01:38:27;11.80;;;9.13;;
3865;SDS011;1948;53.250;10.412;2023-11-21T01:40:57;15.00;;;10.43;;
3865;SDS011;1948;53.250;10.412;2023-11-21T01:43:27;14.10;;;10.60;;
3865;SDS011;1948;53.250;10.412;2023-11-21T01:45:57;23.33;;;11.50;;
3865;SDS011;1948;53.250;10.412;2023-11-21T01:48:25;18.80;;;11.80;;
3865;SDS011;1948;53.250;10.412;2023-11-21T01:50:55;25.73;;;12.83;;
3865;SDS011;1948;53.250;10.412;2023-11-21T01:53:24;17.67;;;11.77;;
3865;SDS011;1948;53.250;10.412;2023-11-21T01:55:56;19.47;;;13.70;;
3865;SDS011;1948;53.250;10.412;2023-11-21T01:58:28;16.27;;;12.80;;
3865;SDS011;1948;53.250;10.412;2023-11-21T02:00:58;19.10;;;13.77;;
3865;SDS011;1948;53.250;10.412;2023-11-21T02:03:26;20.97;;;13.57;;
3865;SDS011;1948;53.250;10.412;2023-11-21T02:05:53;23.40;;;15.10;;
3865;SDS011;1948;53.250;10.412;2023-11-21T02:08:20;21.20;;;13.70;;
3865;SDS011;1948;53.250;10.412;2023-11-21T02:10:50;24.10;;;13.83;;
3865;SDS011;1948;53.250;10.412;2023-11-21T02:13:17;24.33;;;12.47;;
3865;SDS011;1948;53.250;10.412;2023-11-21T02:15:46;21.63;;;13.10;;
3865;SDS011;1948;53.250;10.412;2023-11-21T02:18:18;14.50;;;11.57;;
3865;SDS011;1948;53.250;10.412;2023-11-21T02:20:46;18.50;;;12.70;;
3865;SDS011;1948;53.250;10.412;2023-11-21T02:23:13;15.30;;;11.87;;
3865;SDS011;1948;53.250;10.412;2023-11-21T02:25:44;22.00;;;14.00;;
3865;SDS011;1948;53.250;10.412;2023-11-21T02:28:15;16.50;;;11.90;;
3865;SDS011;1948;53.250;10.412;2023-11-21T02:30:52;18.30;;;11.97;;
3865;SDS011;1948;53.250;10.412;2023-11-21T02:33:23;15.60;;;11.83;;
3865;SDS011;1948;53.250;10.412;2023-11-21T02:35:50;16.83;;;11.63;;
3865;SDS011;1948;53.250;10.412;2023-11-21T02:38:21;13.23;;;11.00;;
3865;SDS011;1948;53.250;10.412;2023-11-21T02:40:48;15.53;;;12.40;;
3865;SDS011;1948;53.250;10.412;2023-11-21T02:43:18;12.70;;;10.27;;
3865;SDS011;1948;53.250;10.412;2023-11-21T02:45:45;16.07;;;12.10;;
3865;SDS011;1948;53.250;10.412;2023-11-21T02:48:12;19.03;;;11.50;;
3865;SDS011;1948;53.250;10.412;2023-11-21T02:50:42;29.73;;;11.90;;
3865;SDS011;1948;53.250;10.412;2023-11-21T02:53:09;13.50;;;10.30;;
3865;SDS011;1948;53.250;10.412;2023-11-21T02:55:37;13.73;;;10.70;;
3865;SDS011;1948;53.250;10.412;2023-11-21T02:58:06;13.60;;;10.33;;
3865;SDS011;1948;53.250;10.412;2023-11-21T03:00:34;19.03;;;11.33;;
3865;SDS011;1948;53.250;10.412;2023-11-21T03:03:03;13.90;;;11.00;;
3865;SDS011;1948;53.250;10.412;2023-11-21T03:05:31;14.10;;;11.40;;
3865;SDS011;1948;53.250;10.412;2023-11-21T03:08:01;19.90;;;12.97;;
3865;SDS011;1948;53.250;10.412;2023-11-21T03:10:29;12.33;;;10.20;;
3865;SDS011;1948;53.250;10.412;2023-11-21T03:12:56;12.20;;;11.00;;
3865;SDS011;1948;53.250;10.412;2023-11-21T03:15:24;16.70;;;11.27;;
3865;SDS011;1948;53.250;10.412;2023-11-21T03:17:54;14.23;;;10.20;;
3865;SDS011;1948;53.250;10.412;2023-11-21T03:20:21;11.80;;;10.10;;
3865;SDS011;1948;53.250;10.412;2023-11-21T03:22:51;15.70;;;11.17;;
3865;SDS011;1948;53.250;10.412;2023-11-21T03:25:20;14.23;;;11.10;;
3865;SDS011;1948;53.250;10.412;2023-11-21T03:27:50;12.90;;;10.73;;
3865;SDS011;1948;53.250;10.412;2023-11-21T03:30:20;10.70;;;9.60;;
3865;SDS011;1948;53.250;10.412;2023-11-21T03:32:47;15.40;;;10.43;;
3865;SDS011;1948;53.250;10.412;2023-11-21T03:35:14;14.77;;;10.83;;
3865;SDS011;1948;53.250;10.412;2023-11-21T03:37:42;12.90;;;10.07;;
3865;SDS011;1948;53.250;10.412;2023-11-21T03:40:10;15.23;;;10.63;;
3865;SDS011;1948;53.250;10.412;2023-11-21T03:42:39;15.10;;;10.47;;
3865;SDS011;1948;53.250;10.412;2023-11-21T03:45:06;10.87;;;9.77;;
3865;SDS011;1948;53.250;10.412;2023-11-21T03:47:39;17.63;;;9.77;;
3865;SDS011;1948;53.250;10.412;2023-11-21T03:50:10;13.73;;;10.47;;
3865;SDS011;1948;53.250;10.412;2023-11-21T03:52:40;18.20;;;10.40;;
3865;SDS011;1948;53.250;10.412;2023-11-21T03:55:10;13.93;;;10.53;;
3865;SDS011;1948;53.250;10.412;2023-11-21T03:57:41;20.43;;;10.70;;
3865;SDS011;1948;53.250;10.412;2023-11-21T04:00:11;14.23;;;10.63;;
3865;SDS011;1948;53.250;10.412;2023-11-21T04:02:39;16.27;;;11.57;;
3865;SDS011;1948;53.250;10.412;2023-11-21T04:05:07;15.97;;;12.00;;
3865;SDS011;1948;53.250;10.412;2023-11-21T04:07:35;11.20;;;10.10;;
3865;SDS011;1948;53.250;10.412;2023-11-21T04:10:07;14.80;;;10.53;;
3865;SDS011;1948;53.250;10.412;2023-11-21T04:12:36;15.60;;;10.40;;
3865;SDS011;1948;53.250;10.412;2023-11-21T04:15:05;12.80;;;10.10;;
3865;SDS011;1948;53.250;10.412;2023-11-21T04:17:35;14.43;;;10.00;;
3865;SDS011;1948;53.250;10.412;2023-11-21T04:20:05;10.90;;;9.63;;
3865;SDS011;1948;53.250;10.412;2023-11-21T04:22:40;17.13;;;11.07;;
3865;SDS011;1948;53.250;10.412;2023-11-21T04:25:14;12.87;;;10.37;;
3865;SDS011;1948;53.250;10.412;2023-11-21T04:27:43;12.43;;;10.30;;
3865;SDS011;1948;53.250;10.412;2023-11-21T04:30:11;16.37;;;10.30;;
3865;SDS011;1948;53.250;10.412;2023-11-21T04:32:40;14.90;;;10.43;;
3865;SDS011;1948;53.250;10.412;2023-11-21T04:35:10;15.83;;;9.90;;
3865;SDS011;1948;53.250;10.412;2023-11-21T04:37:38;12.37;;;10.90;;
3865;SDS011;1948;53.250;10.412;2023-11-21T04:40:07;13.80;;;10.13;;
3865;SDS011;1948;53.250;10.412;2023-11-21T04:42:35;11.80;;;9.90;;
3865;SDS011;1948;53.250;10.412;2023-11-21T04:45:04;13.57;;;10.37;;
3865;SDS011;1948;53.250;10.412;2023-11-21T04:47:35;13.60;;;9.60;;
3865;SDS011;1948;53.250;10.412;2023-11-21T04:50:03;10.80;;;9.40;;
3865;SDS011;1948;53.250;10.412;2023-11-21T04:52:32;11.23;;;10.10;;
3865;SDS011;1948;53.250;10.412;2023-11-21T04:54:59;11.33;;;10.23;;
3865;SDS011;1948;53.250;10.412;2023-11-21T04:57:29;15.30;;;10.87;;
3865;SDS011;1948;53.250;10.412;2023-11-21T04:59:56;13.47;;;9.97;;
3865;SDS011;1948;53.250;10.412;2023-11-21T05:02:23;14.93;;;9.97;;
3865;SDS011;1948;53.250;10.412;2023-11-21T05:05:04;16.67;;;10.10;;
3865;SDS011;1948;53.250;10.412;2023-11-21T05:07:33;12.80;;;10.80;;
3865;SDS011;1948;53.250;10.412;2023-11-21T05:10:04;12.20;;;10.90;;
3865;SDS011;1948;53.250;10.412;2023-11-21T05:12:39;14.70;;;10.80;;
3865;SDS011;1948;53.250;10.412;2023-11-21T05:15:09;14.17;;;10.50;;
3865;SDS011;1948;53.250;10.412;2023-11-21T05:17:41;13.23;;;11.10;;
3865;SDS011;1948;53.250;10.412;2023-11-21T05:20:13;17.20;;;10.30;;
3865;SDS011;1948;53.250;10.412;2023-11-21T05:22:44;13.53;;;11.17;;
3865;SDS011;1948;53.250;10.412;2023-11-21T05:25:12;16.60;;;11.60;;
3865;SDS011;1948;53.250;10.412;2023-11-21T05:27:39;18.13;;;12.07;;
3865;SDS011;1948;53.250;10.412;2023-11-21T05:30:06;11.10;;;10.03;;
3865;SDS011;1948;53.250;10.412;2023-11-21T05:32:39;13.60;;;10.40;;
3865;SDS011;1948;53.250;10.412;2023-11-21T05:35:10;18.97;;;10.50;;
3865;SDS011;1948;53.250;10.412;2023-11-21T05:37:43;12.73;;;10.60;;
3865;SDS011;1948;53.250;10.412;2023-11-21T05:40:13;17.40;;;11.83;;
3865;SDS011;1948;53.250;10.412;2023-11-21T05:42:41;13.50;;;10.33;;
3865;SDS011;1948;53.250;10.412;2023-11-21T05:45:08;15.30;;;10.90;;
3865;SDS011;1948;53.250;10.412;2023-11-21T05:47:43;21.10;;;10.90;;
3865;SDS011;1948;53.250;10.412;2023-11-21T05:50:14;14.17;;;11.10;;
3865;SDS011;1948;53.250;10.412;2023-11-21T05:52:45;11.67;;;10.30;;
3865;SDS011;1948;53.250;10.412;2023-11-21T05:55:13;12.80;;;10.40;;
3865;SDS011;1948;53.250;10.412;2023-11-21T05:57:42;13.13;;;11.20;;
3865;SDS011;1948;53.250;10.412;2023-11-21T06:00:13;13.13;;;10.70;;
3865;SDS011;1948;53.250;10.412;2023-11-21T06:02:52;22.50;;;10.90;;
3865;SDS011;1948;53.250;10.412;2023-11-21T06:05:22;17.73;;;10.93;;
3865;SDS011;1948;53.250;10.412;2023-11-21T06:07:51;24.90;;;10.50;;
3865;SDS011;1948;53.250;10.412;2023-11-21T06:10:23;18.77;;;10.70;;
3865;SDS011;1948;53.250;10.412;2023-11-21T06:12:52;17.97;;;10.47;;
3865;SDS011;1948;53.250;10.412;2023-11-21T06:15:22;12.87;;;10.00;;
3865;SDS011;1948;53.250;10.412;2023-11-21T06:17:50;11.67;;;9.87;;
3865;SDS011;1948;53.250;10.412;2023-11-21T06:20:21;10.63;;;9.53;;
3865;SDS011;1948;53.250;10.412;2023-11-21T06:22:49;12.43;;;11.13;;
3865;SDS011;1948;53.250;10.412;2023-11-21T06:25:18;17.00;;;11.83;;
3865;SDS011;1948;53.250;10.412;2023-11-21T06:27:46;13.83;;;10.97;;
3865;SDS011;1948;53.250;10.412;2023-11-21T06:30:14;15.57;;;11.10;;
3865;SDS011;1948;53.250;10.412;2023-11-21T06:32:43;12.13;;;10.83;;
3865;SDS011;1948;53.250;10.412;2023-11-21T06:35:16;16.93;;;10.53;;
3865;SDS011;1948;53.250;10.412;2023-11-21T06:37:44;17.00;;;9.83;;
3865;SDS011;1948;53.250;10.412;2023-11-21T06:40:19;14.57;;;10.17;;
3865;SDS011;1948;53.250;10.412;2023-11-21T06:42:47;21.83;;;11.20;;
3865;SDS011;1948;53.250;10.412;2023-11-21T06:45:15;14.77;;;10.80;;
3865;SDS011;1948;53.250;10.412;2023-11-21T06:47:43;14.73;;;11.23;;
3865;SDS011;1948;53.250;10.412;2023-11-21T06:50:13;11.00;;;9.87;;
3865;SDS011;1948;53.250;10.412;2023-11-21T06:52:43;11.37;;;10.00;;
3865;SDS011;1948;53.250;10.412;2023-11-21T06:55:13;13.23;;;10.33;;
3865;SDS011;1948;53.250;10.412;2023-11-21T06:57:41;13.97;;;10.53;;
3865;SDS011;1948;53.250;10.412;2023-11-21T07:00:11;11.77;;;10.27;;
3865;SDS011;1948;53.250;10.412;2023-11-21T07:02:40;17.60;;;10.80;;
3865;SDS011;1948;53.250;10.412;2023-11-21T07:05:10;12.70;;;11.37;;
3865;SDS011;1948;53.250;10.412;2023-11-21T07:07:40;11.63;;;10.33;;
3865;SDS011;1948;53.250;10.412;2023-11-21T07:10:08;23.53;;;10.60;;
3865;SDS011;1948;53.250;10.412;2023-11-21T07:12:35;15.80;;;10.60;;
3865;SDS011;1948;53.250;10.412;2023-11-21T07:15:06;17.13;;;9.23;;
3865;SDS011;1948;53.250;10.412;2023-11-21T07:17:37;13.80;;;10.50;;
3865;SDS011;1948;53.250;10.412;2023-11-21T07:20:07;11.10;;;9.80;;
3865;SDS011;1948;53.250;10.412;2023-11-21T07:22:37;12.80;;;10.43;;
3865;SDS011;1948;53.250;10.412;2023-11-21T07:25:07;13.97;;;10.60;;
3865;SDS011;1948;53.250;10.412;2023-11-21T07:27:38;13.50;;;11.07;;
3865;SDS011;1948;53.250;10.412;2023-11-21T07:30:05;15.63;;;10.80;;
3865;SDS011;1948;53.250;10.412;2023-11-21T07:32:36;25.10;;;11.13;;
3865;SDS011;1948;53.250;10.412;2023-11-21T07:35:06;16.67;;;10.73;;
3865;SDS011;1948;53.250;10.412;2023-11-21T07:37:34;12.73;;;10.90;;
3865;SDS011;1948;53.250;10.412;2023-11-21T07:40:04;13.47;;;9.53;;
3865;SDS011;1948;53.250;10.412;2023-11-21T07:42:35;16.13;;;10.00;;
3865;SDS011;1948;53.250;10.412;2023-11-21T07:45:05;14.97;;;9.97;;
3865;SDS011;1948;53.250;10.412;2023-11-21T07:47:33;13.83;;;10.80;;
3865;SDS011;1948;53.250;10.412;2023-11-21T07:50:04;14.20;;;10.80;;
3865;SDS011;1948;53.250;10.412;2023-11-21T07:52:34;13.17;;;10.77;;
3865;SDS011;1948;53.250;10.412;2023-11-21T07:55:01;12.93;;;11.00;;
3865;SDS011;1948;53.250;10.412;2023-11-21T07:57:32;11.63;;;10.20;;
3865;SDS011;1948;53.250;10.412;2023-11-21T08:00:04;18.20;;;10.03;;
3865;SDS011;1948;53.250;10.412;2023-11-21T08:02:36;12.40;;;11.10;;
3865;SDS011;1948;53.250;10.412;2023-11-21T08:05:03;18.00;;;11.70;;
3865;SDS011;1948;53.250;10.412;2023-11-21T08:07:30;13.80;;;10.87;;
3865;SDS011;1948;53.250;10.412;2023-11-21T08:09:59;11.70;;;10.03;;
3865;SDS011;1948;53.250;10.412;2023-11-21T08:12:27;12.63;;;10.83;;
3865;SDS011;1948;53.250;10.412;2023-11-21T08:14:54;18.73;;;11.03;;
3865;SDS011;1948;53.250;10.412;2023-11-21T08:17:21;13.10;;;11.17;;
3865;SDS011;1948;53.250;10.412;2023-11-21T08:19:49;20.70;;;11.13;;
3865;SDS011;1948;53.250;10.412;2023-11-21T08:22:17;12.40;;;11.10;;
3865;SDS011;1948;53.250;10.412;2023-11-21T08:24:45;17.60;;;11.33;;
3865;SDS011;1948;53.250;10.412;2023-11-21T08:27:12;24.73;;;10.80;;
3865;SDS011;1948;53.250;10.412;2023-11-21T08:29:43;14.27;;;11.00;;
3865;SDS011;1948;53.250;10.412;2023-11-21T08:32:10;14.87;;;12.10;;
3865;SDS011;1948;53.250;10.412;2023-11-21T08:34:37;17.47;;;11.33;;
3865;SDS011;1948;53.250;10.412;2023-11-21T08:37:06;18.27;;;10.93;;
3865;SDS011;1948;53.250;10.412;2023-11-21T08:39:33;19.17;;;10.70;;
3865;SDS011;1948;53.250;10.412;2023-11-21T08:42:00;11.63;;;10.37;;
3865;SDS011;1948;53.250;10.412;2023-11-21T08:44:28;11.33;;;10.10;;
3865;SDS011;1948;53.250;10.412;2023-11-21T08:47:00;17.50;;;11.00;;
3865;SDS011;1948;53.250;10.412;2023-11-21T08:49:33;11.20;;;9.97;;
3865;SDS011;1948;53.250;10.412;2023-11-21T08:52:00;18.13;;;10.10;;
3865;SDS011;1948;53.250;10.412;2023-11-21T08:54:31;20.13;;;11.43;;
3865;SDS011;1948;53.250;10.412;2023-11-21T08:57:03;14.03;;;10.37;;
3865;SDS011;1948;53.250;10.412;2023-11-21T08:59:31;13.93;;;10.63;;
3865;SDS011;1948;53.250;10.412;2023-11-21T09:01:59;11.90;;;10.10;;
3865;SDS011;1948;53.250;10.412;2023-11-21T09:04:26;12.03;;;10.03;;
3865;SDS011;1948;53.250;10.412;2023-11-21T09:06:58;10.90;;;9.80;;
3865;SDS011;1948;53.250;10.412;2023-11-21T09:09:26;11.57;;;10.37;;
3865;SDS011;1948;53.250;10.412;2023-11-21T09:11:57;12.50;;;10.30;;
3865;SDS011;1948;53.250;10.412;2023-11-21T09:14:26;18.60;;;10.00;;
3865;SDS011;1948;53.250;10.412;2023-11-21T09:16:54;10.67;;;9.57;;
3865;SDS011;1948;53.250;10.412;2023-11-21T09:19:23;11.27;;;9.40;;
3865;SDS011;1948;53.250;10.412;2023-11-21T09:21:51;13.03;;;9.20;;
3865;SDS011;1948;53.250;10.412;2023-11-21T09:24:18;16.43;;;12.37;;
3865;SDS011;1948;53.250;10.412;2023-11-21T09:26:45;18.60;;;11.60;;
3865;SDS011;1948;53.250;10.412;2023-11-21T09:29:12;9.30;;;8.60;;
3865;SDS011;1948;53.250;10.412;2023-11-21T09:31:40;11.80;;;9.57;;
3865;SDS011;1948;53.250;10.412;2023-11-21T09:34:08;9.37;;;8.53;;
3865;SDS011;1948;53.250;10.412;2023-11-21T09:36:39;9.07;;;8.23;;
3865;SDS011;1948;53.250;10.412;2023-11-21T09:39:07;12.73;;;8.63;;
3865;SDS011;1948;53.250;10.412;2023-11-21T09:41:59;9.30;;;8.50;;
3865;SDS011;1948;53.250;10.412;2023-11-21T09:47:53;8.80;;;7.93;;
3865;SDS011;1948;53.250;10.412;2023-11-21T09:50:25;9.00;;;8.40;;
3865;SDS011;1948;53.250;10.412;2023-11-21T09:55:48;9.67;;;8.80;;
3865;SDS011;1948;53.250;10.412;2023-11-21T09:58:19;9.43;;;8.00;;
3865;SDS011;1948;53.250;10.412;2023-11-21T10:00:53;8.70;;;7.80;;
3865;SDS011;1948;53.250;10.412;2023-11-21T10:03:23;8.93;;;8.07;;
3865;SDS011;1948;53.250;10.412;2023-11-21T10:05:50;7.97;;;7.20;;
3865;SDS011;1948;53.250;10.412;2023-11-21T10:08:19;8.13;;;7.50;;
3865;SDS011;1948;53.250;10.412;2023-11-21T10:10:51;7.70;;;7.00;;
3865;SDS011;1948;53.250;10.412;2023-11-21T10:13:23;7.57;;;6.87;;
3865;SDS011;1948;53.250;10.412;2023-11-21T10:15:51;10.83;;;7.60;;
3865;SDS011;1948;53.250;10.412;2023-11-21T10:18:19;7.57;;;6.83;;
3865;SDS011;1948;53.250;10.412;2023-11-21T10:20:51;11.53;;;7.77;;
3865;SDS011;1948;53.250;10.412;2023-11-21T10:23:21;8.63;;;7.27;;
3865;SDS011;1948;53.250;10.412;2023-11-21T10:25:50;7.30;;;6.60;;
3865;SDS011;1948;53.250;10.412;2023-11-21T10:28:19;7.37;;;6.77;;
3865;SDS011;1948;53.250;10.412;2023-11-21T10:30:51;7.90;;;6.23;;
3865;SDS011;1948;53.250;10.412;2023-11-21T10:33:21;10.80;;;7.00;;
3865;SDS011;1948;53.250;10.412;2023-11-21T10:35:56;7.00;;;6.40;;
3865;SDS011;1948;53.250;10.412;2023-11-21T10:38:26;7.33;;;6.67;;
3865;SDS011;1948;53.250;10.412;2023-11-21T10:40:54;6.80;;;6.30;;
3865;SDS011;1948;53.250;10.412;2023-11-21T10:43:25;6.77;;;6.27;;
3865;SDS011;1948;53.250;10.412;2023-11-21T10:45:54;6.63;;;6.10;;
3865;SDS011;1948;53.250;10.412;2023-11-21T10:48:27;7.13;;;6.40;;
3865;SDS011;1948;53.250;10.412;2023-11-21T10:50:54;8.73;;;5.73;;
3865;SDS011;1948;53.250;10.412;2023-11-21T10:53:22;9.80;;;5.70;;
3865;SDS011;1948;53.250;10.412;2023-11-21T10:55:50;6.80;;;5.73;;
3865;SDS011;1948;53.250;10.412;2023-11-21T10:58:28;5.77;;;5.40;;
3865;SDS011;1948;53.250;10.412;2023-11-21T11:00:59;5.90;;;5.50;;
3865;SDS011;1948;53.250;10.412;2023-11-21T11:03:31;6.13;;;5.73;;
3865;SDS011;1948;53.250;10.412;2023-11-21T11:06:00;6.03;;;5.70;;
3865;SDS011;1948;53.250;10.412;2023-11-21T11:08:27;8.73;;;6.37;;
3865;SDS011;1948;53.250;10.412;2023-11-21T11:10:54;5.43;;;5.23;;
3865;SDS011;1948;53.250;10.412;2023-11-21T11:13:22;6.53;;;5.93;;
3865;SDS011;1948;53.250;10.412;2023-11-21T11:15:57;5.00;;;4.83;;
3865;SDS011;1948;53.250;10.412;2023-11-21T11:18:29;5.43;;;5.23;;
3865;SDS011;1948;53.250;10.412;2023-11-21T11:21:18;8.63;;;5.83;;
3865;SDS011;1948;53.250;10.412;2023-11-21T11:35:29;5.70;;;5.17;;
3865;SDS011;1948;53.250;10.412;2023-11-21T11:38:09;6.23;;;5.83;;
3865;SDS011;1948;53.250;10.412;2023-11-21T11:40:41;12.67;;;8.93;;
3865;SDS011;1948;53.250;10.412;2023-11-21T11:43:11;6.13;;;5.73;;
3865;SDS011;1948;53.250;10.412;2023-11-21T11:45:41;8.77;;;5.23;;
3865;SDS011;1948;53.250;10.412;2023-11-21T11:48:11;5.13;;;4.83;;
3865;SDS011;1948;53.250;10.412;2023-11-21T11:53:38;12.33;;;6.10;;
3865;SDS011;1948;53.250;10.412;2023-11-21T11:56:23;6.57;;;5.17;;
3865;SDS011;1948;53.250;10.412;2023-11-21T11:58:58;6.30;;;5.37;;
3865;SDS011;1948;53.250;10.412;2023-11-21T12:01:35;13.60;;;5.37;;
3865;SDS011;1948;53.250;10.412;2023-11-21T12:06:53;5.17;;;4.83;;
3865;SDS011;1948;53.250;10.412;2023-11-21T12:09:21;6.17;;;5.70;;
3865;SDS011;1948;53.250;10.412;2023-11-21T12:11:53;5.20;;;4.77;;
3865;SDS011;1948;53.250;10.412;2023-11-21T12:14:22;4.83;;;4.43;;
3865;SDS011;1948;53.250;10.412;2023-11-21T12:16:50;5.63;;;5.00;;
3865;SDS011;1948;53.250;10.412;2023-11-21T12:19:18;4.43;;;4.23;;
3865;SDS011;1948;53.250;10.412;2023-11-21T12:21:47;5.60;;;4.37;;
3865;SDS011;1948;53.250;10.412;2023-11-21T12:24:16;4.57;;;4.30;;
3865;SDS011;1948;53.250;10.412;2023-11-21T12:26:45;5.70;;;5.30;;
3865;SDS011;1948;53.250;10.412;2023-11-21T12:29:15;5.20;;;4.90;;
3865;SDS011;1948;53.250;10.412;2023-11-21T12:31:45;5.03;;;4.63;;
3865;SDS011;1948;53.250;10.412;2023-11-21T12:34:16;14.03;;;5.57;;
3865;SDS011;1948;53.250;10.412;2023-11-21T12:36:45;4.30;;;4.20;;
3865;SDS011;1948;53.250;10.412;2023-11-21T12:39:15;7.03;;;5.23;;
3865;SDS011;1948;53.250;10.412;2023-11-21T12:41:43;4.47;;;4.37;;
3865;SDS011;1948;53.250;10.412;2023-11-21T12:44:12;4.73;;;4.30;;
3865;SDS011;1948;53.250;10.412;2023-11-21T12:46:42;4.80;;;4.50;;
3865;SDS011;1948;53.250;10.412;2023-11-21T12:49:11;4.83;;;4.40;;
3865;SDS011;1948;53.250;10.412;2023-11-21T12:51:45;5.60;;;5.10;;
3865;SDS011;1948;53.250;10.412;2023-11-21T12:54:13;4.97;;;4.57;;
3865;SDS011;1948;53.250;10.412;2023-11-21T12:56:44;4.87;;;4.50;;
3865;SDS011;1948;53.250;10.412;2023-11-21T12:59:15;4.80;;;4.50;;
3865;SDS011;1948;53.250;10.412;2023-11-21T13:01:44;4.60;;;4.33;;
3865;SDS011;1948;53.250;10.412;2023-11-21T13:04:17;4.63;;;4.33;;
3865;SDS011;1948;53.250;10.412;2023-11-21T13:06:45;5.13;;;4.70;;
3865;SDS011;1948;53.250;10.412;2023-11-21T13:09:15;4.77;;;4.33;;
3865;SDS011;1948;53.250;10.412;2023-11-21T13:11:50;5.20;;;4.90;;
3865;SDS011;1948;53.250;10.412;2023-11-21T13:14:29;5.90;;;5.30;;
3865;SDS011;1948;53.250;10.412;2023-11-21T13:16:58;5.83;;;5.23;;
3865;SDS011;1948;53.250;10.412;2023-11-21T13:19:25;5.20;;;4.90;;
3865;SDS011;1948;53.250;10.412;2023-11-21T13:21:55;5.33;;;4.93;;
3865;SDS011;1948;53.250;10.412;2023-11-21T13:24:25;5.70;;;5.30;;
3865;SDS011;1948;53.250;10.412;2023-11-21T13:26:54;5.70;;;5.40;;
3865;SDS011;1948;53.250;10.412;2023-11-21T13:29:24;6.47;;;5.57;;
3865;SDS011;1948;53.250;10.412;2023-11-21T13:31:53;6.03;;;5.60;;
3865;SDS011;1948;53.250;10.412;2023-11-21T13:34:21;5.80;;;5.40;;
3865;SDS011;1948;53.250;10.412;2023-11-21T13:36:59;5.30;;;4.90;;
3865;SDS011;1948;53.250;10.412;2023-11-21T13:39:29;5.67;;;5.13;;
3865;SDS011;1948;53.250;10.412;2023-11-21T13:41:58;6.57;;;5.73;;
3865;SDS011;1948;53.250;10.412;2023-11-21T13:44:29;5.77;;;5.47;;
3865;SDS011;1948;53.250;10.412;2023-11-21T13:47:04;6.07;;;5.67;;
3865;SDS011;1948;53.250;10.412;2023-11-21T13:49:32;5.93;;;5.27;;
3865;SDS011;1948;53.250;10.412;2023-11-21T13:52:07;6.63;;;5.70;;
3865;SDS011;1948;53.250;10.412;2023-11-21T13:54:34;6.33;;;5.80;;
3865;SDS011;1948;53.250;10.412;2023-11-21T13:57:01;6.77;;;6.03;;
3865;SDS011;1948;53.250;10.412;2023-11-21T13:59:29;6.10;;;5.53;;
3865;SDS011;1948;53.250;10.412;2023-11-21T14:01:58;5.80;;;5.40;;
3865;SDS011;1948;53.250;10.412;2023-11-21T14:04:43;8.40;;;5.60;;
3865;SDS011;1948;53.250;10.412;2023-11-21T14:07:19;17.90;;;11.10;;
3865;SDS011;1948;53.250;10.412;2023-11-21T14:09:59;6.77;;;5.53;;
3865;SDS011;1948;53.250;10.412;2023-11-21T14:12:27;6.17;;;5.57;;
3865;SDS011;1948;53.250;10.412;2023-11-21T14:15:04;7.33;;;6.00;;
3865;SDS011;1948;53.250;10.412;2023-11-21T14:17:34;5.63;;;5.10;;
3865;SDS011;1948;53.250;10.412;2023-11-21T14:20:06;6.47;;;6.03;;
3865;SDS011;1948;53.250;10.412;2023-11-21T14:22:41;5.37;;;4.97;;
3865;SDS011;1948;53.250;10.412;2023-11-21T14:25:11;7.20;;;5.50;;
3865;SDS011;1948;53.250;10.412;2023-11-21T14:27:39;5.97;;;5.00;;
3865;SDS011;1948;53.250;10.412;2023-11-21T14:30:06;5.97;;;5.47;;
3865;SDS011;1948;53.250;10.412;2023-11-21T14:32:34;7.03;;;6.10;;
3865;SDS011;1948;53.250;10.412;2023-11-21T14:35:04;6.53;;;5.97;;
3865;SDS011;1948;53.250;10.412;2023-11-21T14:37:34;16.40;;;6.57;;
3865;SDS011;1948;53.250;10.412;2023-11-21T14:40:02;6.50;;;6.00;;
3865;SDS011;1948;53.250;10.412;2023-11-21T14:42:34;5.37;;;4.97;;
3865;SDS011;1948;53.250;10.412;2023-11-21T14:45:05;6.20;;;5.77;;
3865;SDS011;1948;53.250;10.412;2023-11-21T14:47:38;9.10;;;5.57;;
3865;SDS011;1948;53.250;10.412;2023-11-21T14:50:13;7.13;;;5.73;;
3865;SDS011;1948;53.250;10.412;2023-11-21T14:53:10;5.70;;;5.50;;
3865;SDS011;1948;53.250;10.412;2023-11-21T14:55:44;14.67;;;5.67;;
3865;SDS011;1948;53.250;10.412;2023-11-21T14:58:25;5.90;;;5.60;;
3865;SDS011;1948;53.250;10.412;2023-11-21T15:00:54;11.20;;;5.93;;
3865;SDS011;1948;53.250;10.412;2023-11-21T15:03:27;12.27;;;6.20;;
3865;SDS011;1948;53.250;10.412;2023-11-21T15:06:00;18.63;;;6.40;;
3865;SDS011;1948;53.250;10.412;2023-11-21T15:08:51;10.63;;;7.10;;
3865;SDS011;1948;53.250;10.412;2023-11-21T15:11:34;7.00;;;6.30;;
3865;SDS011;1948;53.250;10.412;2023-11-21T15:14:04;7.03;;;6.53;;
3865;SDS011;1948;53.250;10.412;2023-11-21T15:16:37;7.43;;;6.50;;
3865;SDS011;1948;53.250;10.412;2023-11-21T15:19:08;11.30;;;6.50;;
3865;SDS011;1948;53.250;10.412;2023-11-21T15:21:44;8.90;;;6.17;;
3865;SDS011;1948;53.250;10.412;2023-11-21T15:24:17;7.30;;;5.63;;
3865;SDS011;1948;53.250;10.412;2023-11-21T15:26:44;10.10;;;5.97;;
3865;SDS011;1948;53.250;10.412;2023-11-21T15:29:11;9.03;;;5.17;;